Time;durP1;ratioP1;P1;durP2;ratioP2;P2;SDS_P1;SDS_P2;PMS_P1;PMS_P2;Temp;Humidity;BMP_temperature;BMP_pressure;BME280_temperature;BME280_humidity;BME280_pressure;Samples;Min_cycle;Max_cycle;Signal;HPM_P1;HPM_P2
2022/05/05 00:00:55;;;;;;;12.77;11.40;;;;;;;-143.37;100.00;62585.38;5028937;28;21200;-78
2022/05/05 00:03:30;;;;;;;11.87;10.67;;;;;;;-143.37;100.00;62585.38;5043074;28;20996;-78
2022/05/05 00:06:06;;;;;;;11.90;10.80;;;;;;;-143.37;100.00;62585.38;5023380;28;20508;-78
2022/05/05 00:08:42;;;;;;;11.20;10.10;;;;;;;-143.37;100.00;62585.38;5044749;28;20803;-78
2022/05/05 00:14:24;;;;;;;11.00;10.00;;;;;;;-143.37;100.00;62585.38;5046006;28;20801;-78
2022/05/05 00:17:02;;;;;;;11.90;10.70;;;;;;;-143.37;100.00;62585.38;5024476;28;20451;-78
2022/05/05 00:19:40;;;;;;;13.83;11.80;;;;;;;-143.37;100.00;62585.38;5047014;28;20507;-78
2022/05/05 00:22:15;;;;;;;13.20;11.80;;;;;;;-143.37;100.00;62585.38;5043981;28;20455;-78
2022/05/05 00:24:51;;;;;;;11.30;10.07;;;;;;;-143.37;100.00;62585.38;5025252;28;20439;-78
2022/05/05 00:27:28;;;;;;;13.20;10.93;;;;;;;-143.37;100.00;62585.38;5044581;28;20541;-78
2022/05/05 00:30:07;;;;;;;13.83;12.23;;;;;;;-143.37;100.00;62585.38;5009562;28;20869;-78
2022/05/05 00:32:42;;;;;;;12.83;10.67;;;;;;;-143.37;100.00;62585.38;5045149;28;20905;-78
2022/05/05 00:35:18;;;;;;;12.43;11.10;;;;;;;-143.37;100.00;62585.38;5041033;28;20774;-78
2022/05/05 00:37:54;;;;;;;15.20;11.00;;;;;;;-143.37;100.00;62585.38;5024231;28;20961;-78
2022/05/05 00:40:29;;;;;;;12.33;11.07;;;;;;;-143.37;100.00;62585.38;5039112;28;20468;-78
2022/05/05 00:43:05;;;;;;;13.30;11.90;;;;;;;-143.37;100.00;62585.38;5027660;28;20541;-78
2022/05/05 00:45:45;;;;;;;13.37;12.07;;;;;;;-143.37;100.00;62585.38;5027164;28;20439;-78
2022/05/05 00:48:25;;;;;;;12.60;11.30;;;;;;;-143.37;100.00;62585.38;5028855;28;20471;-78
2022/05/05 00:51:01;;;;;;;13.33;12.03;;;;;;;-143.37;100.00;62585.38;5039389;28;20540;-78
2022/05/05 00:53:36;;;;;;;12.17;11.07;;;;;;;-143.37;100.00;62585.38;5030120;28;20845;-78
2022/05/05 00:56:14;;;;;;;13.03;10.43;;;;;;;-143.37;100.00;62585.38;5028868;28;20490;-78
2022/05/05 00:58:51;;;;;;;11.80;10.70;;;;;;;-143.37;100.00;62585.38;5064469;28;20438;-78
2022/05/05 01:01:28;;;;;;;12.77;11.47;;;;;;;-143.37;100.00;62585.38;5043048;28;20474;-78
2022/05/05 01:04:03;;;;;;;12.63;11.40;;;;;;;-143.37;100.00;62585.38;5047859;28;20548;-78
2022/05/05 01:06:39;;;;;;;12.80;11.60;;;;;;;-143.37;100.00;62585.38;5061609;28;20451;-78
2022/05/05 01:09:15;;;;;;;11.33;10.30;;;;;;;-143.37;100.00;62585.38;5061674;28;20935;-78
2022/05/05 01:11:50;;;;;;;11.23;10.13;;;;;;;-143.37;100.00;62585.38;5064203;28;20544;-78
2022/05/05 01:14:26;;;;;;;11.73;10.53;;;;;;;-143.37;100.00;62585.38;5049123;28;20470;-78
2022/05/05 01:17:04;;;;;;;12.40;11.10;;;;;;;-143.37;100.00;62585.38;5063028;28;20846;-78
2022/05/05 01:19:40;;;;;;;11.57;10.47;;;;;;;-143.37;100.00;62585.38;5042908;28;20522;-78
2022/05/05 01:22:18;;;;;;;11.17;10.07;;;;;;;-143.37;100.00;62585.38;5040236;28;20482;-78
2022/05/05 01:30:54;;;;;;;10.27;9.27;;;;;;;-143.37;100.00;62585.38;5012415;28;20448;-78
2022/05/05 01:33:30;;;;;;;10.13;9.10;;;;;;;-143.37;100.00;62585.38;5008282;28;20452;-78
2022/05/05 01:36:07;;;;;;;9.70;8.73;;;;;;;-143.37;100.00;62585.38;5028229;28;20809;-78
2022/05/05 01:38:44;;;;;;;10.10;8.73;;;;;;;-143.37;100.00;62585.38;5064680;28;20447;-78
2022/05/05 01:41:21;;;;;;;9.30;7.90;;;;;;;-143.37;100.00;62585.38;5063210;28;20584;-78
2022/05/05 01:43:57;;;;;;;11.10;9.27;;;;;;;-143.37;100.00;62585.38;5044026;28;20536;-78
2022/05/05 01:46:32;;;;;;;11.07;9.40;;;;;;;-143.37;100.00;62585.38;5043900;28;20449;-78
2022/05/05 01:49:09;;;;;;;10.43;9.50;;;;;;;-143.37;100.00;62585.38;5047043;28;20446;-78
2022/05/05 01:51:45;;;;;;;10.80;9.80;;;;;;;-143.37;100.00;62585.38;5045654;28;20442;-78
2022/05/05 01:54:22;;;;;;;11.43;9.37;;;;;;;-143.37;100.00;62585.38;5046425;28;20445;-78
2022/05/05 01:56:58;;;;;;;11.30;9.60;;;;;;;-143.37;100.00;62585.38;5049758;28;20465;-78
2022/05/05 01:59:33;;;;;;;10.43;9.40;;;;;;;-143.37;100.00;62585.38;5066597;28;20517;-78
2022/05/05 02:02:09;;;;;;;10.63;9.60;;;;;;;-143.37;100.00;62585.38;5065360;28;20482;-78
2022/05/05 02:04:44;;;;;;;10.60;9.53;;;;;;;-143.37;100.00;62585.38;5045886;28;20453;-78
2022/05/05 02:07:20;;;;;;;10.83;9.60;;;;;;;-143.37;100.00;62585.38;5060419;28;20449;-78
2022/05/05 02:10:01;;;;;;;10.30;9.20;;;;;;;-143.37;100.00;62585.38;5062599;28;20438;-78
2022/05/05 02:12:38;;;;;;;15.73;9.90;;;;;;;-143.37;100.00;62585.38;5061248;28;20446;-78
2022/05/05 02:15:15;;;;;;;10.50;9.43;;;;;;;-143.37;100.00;62585.38;5047017;28;21013;-78
2022/05/05 02:17:51;;;;;;;9.50;8.60;;;;;;;-143.37;100.00;62585.38;5044710;28;20508;-78
2022/05/05 02:20:26;;;;;;;9.30;8.27;;;;;;;-143.37;100.00;62585.38;5042251;28;20536;-78
2022/05/05 02:23:02;;;;;;;11.80;10.60;;;;;;;-143.37;100.00;62585.38;5063196;28;20471;-78
2022/05/05 02:25:40;;;;;;;9.93;8.93;;;;;;;-143.37;100.00;62585.38;5061194;28;20481;-78
2022/05/05 02:28:15;;;;;;;10.00;8.90;;;;;;;-143.37;100.00;62585.38;5062790;28;20442;-78
2022/05/05 02:30:51;;;;;;;9.67;8.67;;;;;;;-143.37;100.00;62585.38;5062750;28;20450;-78
2022/05/05 02:33:27;;;;;;;10.33;9.30;;;;;;;-143.37;100.00;62585.38;5055201;28;20470;-78
2022/05/05 02:38:56;;;;;;;9.53;8.63;;;;;;;-143.37;100.00;62585.38;5046885;28;20548;-78
2022/05/05 02:41:33;;;;;;;10.37;9.47;;;;;;;-143.37;100.00;62585.38;5043472;28;21053;-78
2022/05/05 02:44:08;;;;;;;10.33;9.03;;;;;;;-143.37;100.00;62585.38;5043920;28;20525;-78
2022/05/05 02:46:44;;;;;;;10.40;9.20;;;;;;;-143.37;100.00;62585.38;5043656;28;20450;-78
2022/05/05 02:49:19;;;;;;;10.87;9.40;;;;;;;-143.37;100.00;62585.38;5063136;28;20474;-78
2022/05/05 02:51:55;;;;;;;10.20;9.17;;;;;;;-143.37;100.00;62585.38;5043784;28;20481;-78
2022/05/05 02:54:50;;;;;;;10.53;9.53;;;;;;;-143.37;100.00;62585.38;5067078;28;20433;-78
2022/05/05 02:57:27;;;;;;;11.00;8.63;;;;;;;-143.37;100.00;62585.38;5047853;28;20477;-78
2022/05/05 03:00:07;;;;;;;10.80;9.03;;;;;;;-143.37;100.00;62585.38;5064848;28;20524;-78
2022/05/05 03:02:43;;;;;;;9.87;8.87;;;;;;;-143.37;100.00;62585.38;5068057;28;20565;-78
2022/05/05 03:05:18;;;;;;;10.33;9.33;;;;;;;-143.37;100.00;62585.38;5067790;28;20435;-78
2022/05/05 03:07:54;;;;;;;10.50;9.10;;;;;;;-143.37;100.00;62585.38;5066395;28;20430;-78
2022/05/05 03:10:29;;;;;;;12.33;11.07;;;;;;;-143.37;100.00;62585.38;5067068;28;20434;-78
2022/05/05 03:13:06;;;;;;;10.27;8.73;;;;;;;-143.37;100.00;62585.38;5049755;28;20449;-78
2022/05/05 03:15:42;;;;;;;10.63;9.60;;;;;;;-143.37;100.00;62585.38;5028775;28;20447;-78
2022/05/05 03:18:20;;;;;;;10.63;9.60;;;;;;;-143.37;100.00;62585.38;5066979;28;20953;-78
2022/05/05 03:20:55;;;;;;;10.23;9.23;;;;;;;-143.37;100.00;62585.38;5049062;28;20474;-78
2022/05/05 03:23:31;;;;;;;11.70;10.50;;;;;;;-143.37;100.00;62585.38;5046102;28;20676;-77
2022/05/05 03:26:06;;;;;;;10.80;9.77;;;;;;;-143.37;100.00;62585.38;5059522;28;20461;-77
2022/05/05 03:28:44;;;;;;;9.97;8.97;;;;;;;-143.37;100.00;62585.38;5061531;28;20442;-78
2022/05/05 03:31:20;;;;;;;9.57;8.67;;;;;;;-143.37;100.00;62585.38;5062363;28;20929;-77
2022/05/05 03:33:55;;;;;;;9.83;8.83;;;;;;;-143.37;100.00;62585.38;5066180;28;20438;-77
2022/05/05 03:36:30;;;;;;;11.50;10.23;;;;;;;-143.37;100.00;62585.38;5045761;28;20475;-77
2022/05/05 03:39:06;;;;;;;11.87;10.03;;;;;;;-143.37;100.00;62585.38;5046871;28;20532;-77
2022/05/05 03:41:42;;;;;;;11.17;10.07;;;;;;;-143.37;100.00;62585.38;5068696;28;20477;-77
2022/05/05 03:44:18;;;;;;;11.87;10.20;;;;;;;-143.37;100.00;62585.38;5062321;28;20530;-77
2022/05/05 03:46:54;;;;;;;10.40;9.40;;;;;;;-143.37;100.00;62585.38;5046994;28;20442;-77
2022/05/05 03:49:30;;;;;;;12.20;11.00;;;;;;;-143.37;100.00;62585.38;5047939;28;20454;-77
2022/05/05 03:52:06;;;;;;;11.60;10.40;;;;;;;-143.37;100.00;62585.38;5068901;28;20524;-77
2022/05/05 03:54:42;;;;;;;14.43;11.37;;;;;;;-143.37;100.00;62585.38;5064620;28;20441;-77
2022/05/05 03:57:17;;;;;;;12.23;10.97;;;;;;;-143.37;100.00;62585.38;5061084;28;20885;-77
2022/05/05 03:59:55;;;;;;;14.13;12.57;;;;;;;-143.37;100.00;62585.38;5047562;28;20536;-77
2022/05/05 04:02:31;;;;;;;12.60;11.37;;;;;;;-143.37;100.00;62585.38;5066582;28;20477;-77
2022/05/05 04:05:07;;;;;;;12.63;11.33;;;;;;;-143.37;100.00;62585.38;5048086;28;20479;-77
2022/05/05 04:07:43;;;;;;;13.10;11.90;;;;;;;-143.37;100.00;62585.38;5050501;28;20473;-77
2022/05/05 04:10:19;;;;;;;12.90;11.60;;;;;;;-143.37;100.00;62585.38;5039457;28;20426;-78
2022/05/05 04:12:55;;;;;;;14.40;12.90;;;;;;;-143.37;100.00;62585.38;5046678;28;20469;-77
2022/05/05 04:15:33;;;;;;;14.07;12.53;;;;;;;-143.37;100.00;62585.38;5043429;28;20470;-77
2022/05/05 04:18:09;;;;;;;12.40;11.20;;;;;;;-143.37;100.00;62585.38;5059189;28;20537;-77
2022/05/05 04:20:47;;;;;;;20.57;15.70;;;;;;;-143.37;100.00;62585.38;5046910;28;20450;-77
2022/05/05 04:23:25;;;;;;;16.50;14.77;;;;;;;-143.37;100.00;62585.38;5046153;28;20434;-77
2022/05/05 04:26:01;;;;;;;18.47;16.63;;;;;;;-143.37;100.00;62585.38;5061871;28;20474;-77
2022/05/05 04:28:37;;;;;;;18.97;16.37;;;;;;;-143.37;100.00;62585.38;5046460;28;20770;-77
2022/05/05 04:31:15;;;;;;;16.50;14.57;;;;;;;-143.37;100.00;62585.38;5044343;28;20795;-77
2022/05/05 04:33:50;;;;;;;15.23;13.73;;;;;;;-143.37;100.00;62585.38;5066566;28;20442;-77
2022/05/05 04:36:26;;;;;;;15.27;13.70;;;;;;;-143.37;100.00;62585.38;5047584;28;20545;-77
2022/05/05 04:39:02;;;;;;;15.30;13.73;;;;;;;-143.37;100.00;62585.38;5058445;28;20538;-77
2022/05/05 04:41:37;;;;;;;14.63;13.13;;;;;;;-143.37;100.00;62585.38;5044980;28;20969;-77
2022/05/05 04:44:13;;;;;;;14.63;13.13;;;;;;;-143.37;100.00;62585.38;5049898;28;20445;-77
2022/05/05 04:46:50;;;;;;;14.93;13.43;;;;;;;-143.37;100.00;62585.38;5069592;28;20458;-78
2022/05/05 04:49:26;;;;;;;15.40;13.73;;;;;;;-143.37;100.00;62585.38;5059782;28;20450;-77
2022/05/05 04:52:01;;;;;;;14.93;13.33;;;;;;;-143.37;100.00;62585.38;5049636;28;20744;-78
2022/05/05 04:54:37;;;;;;;14.77;13.20;;;;;;;-143.37;100.00;62585.38;5045968;28;20470;-77
2022/05/05 04:57:13;;;;;;;15.17;13.10;;;;;;;-143.37;100.00;62585.38;5064145;28;20473;-77
2022/05/05 04:59:48;;;;;;;16.90;12.87;;;;;;;-143.37;100.00;62585.38;5052239;28;20482;-78
2022/05/05 05:02:26;;;;;;;14.50;13.00;;;;;;;-143.37;100.00;62585.38;5047843;28;20485;-77
2022/05/05 05:05:02;;;;;;;13.67;12.27;;;;;;;-143.37;100.00;62585.38;5065675;28;20442;-77
2022/05/05 05:07:37;;;;;;;14.70;12.63;;;;;;;-143.37;100.00;62585.38;5042819;28;20809;-78
2022/05/05 05:10:13;;;;;;;14.77;12.90;;;;;;;-143.37;100.00;62585.38;5048844;28;20442;-78
2022/05/05 05:12:49;;;;;;;15.40;13.47;;;;;;;-143.37;100.00;62585.38;5062773;28;20426;-78
2022/05/05 05:15:25;;;;;;;14.60;13.00;;;;;;;-143.37;100.00;62585.38;5046020;28;20437;-77
2022/05/05 05:18:02;;;;;;;16.10;13.57;;;;;;;-143.37;100.00;62585.38;5048711;28;20445;-78
2022/05/05 05:20:37;;;;;;;15.17;13.47;;;;;;;-143.37;100.00;62585.38;5060636;28;20474;-77
2022/05/05 05:23:13;;;;;;;16.40;13.70;;;;;;;-143.37;100.00;62585.38;5063352;28;20502;-77
2022/05/05 05:25:49;;;;;;;13.73;12.33;;;;;;;-143.37;100.00;62585.38;5066655;28;20449;-78
2022/05/05 05:28:25;;;;;;;14.27;12.37;;;;;;;-143.37;100.00;62585.38;5070003;28;20442;-78
2022/05/05 05:31:00;;;;;;;11.50;10.30;;;;;;;-143.37;100.00;62585.38;5032794;28;20462;-77
2022/05/05 05:33:37;;;;;;;13.47;12.07;;;;;;;-143.37;100.00;62585.38;5049588;28;20465;-77
2022/05/05 05:36:13;;;;;;;12.80;10.87;;;;;;;-143.37;100.00;62585.38;5057430;28;20548;-78
2022/05/05 05:38:48;;;;;;;10.33;9.33;;;;;;;-143.37;100.00;62585.38;5043554;28;20465;-78
2022/05/05 05:41:26;;;;;;;14.17;10.83;;;;;;;-143.37;100.00;62585.38;5057678;28;20445;-77
2022/05/05 05:44:02;;;;;;;11.53;10.43;;;;;;;-143.37;100.00;62585.38;5059668;28;20495;-77
2022/05/05 05:46:38;;;;;;;13.00;11.70;;;;;;;-143.37;100.00;62585.38;5041416;28;20933;-77
2022/05/05 05:49:15;;;;;;;12.87;10.70;;;;;;;-143.37;100.00;62585.38;5032848;28;20442;-77
2022/05/05 05:51:51;;;;;;;11.33;10.13;;;;;;;-143.37;100.00;62585.38;5043723;28;21035;-77
2022/05/05 05:54:27;;;;;;;11.37;10.27;;;;;;;-143.37;100.00;62585.38;5040637;28;20449;-77
2022/05/05 05:57:03;;;;;;;12.33;11.13;;;;;;;-143.37;100.00;62585.38;5042548;28;21060;-78
2022/05/05 05:59:39;;;;;;;12.23;11.10;;;;;;;-143.37;100.00;62585.38;5060608;28;20917;-77
2022/05/05 06:05:09;;;;;;;13.60;12.20;;;;;;;-143.37;100.00;62585.38;5040996;28;20447;-77
2022/05/05 06:07:45;;;;;;;11.93;10.53;;;;;;;-143.37;100.00;62585.38;5060292;28;20450;-77
2022/05/05 06:10:21;;;;;;;12.87;11.57;;;;;;;-143.37;100.00;62585.38;5049451;28;20509;-77
2022/05/05 06:12:56;;;;;;;11.80;10.33;;;;;;;-143.37;100.00;62585.38;5063574;28;20430;-77
2022/05/05 06:15:33;;;;;;;12.40;11.07;;;;;;;-143.37;100.00;62585.38;5046236;28;20461;-78
2022/05/05 06:18:09;;;;;;;12.40;11.10;;;;;;;-143.37;100.00;62585.38;5049210;28;20851;-78
2022/05/05 06:20:46;;;;;;;11.87;10.67;;;;;;;-143.37;100.00;62585.38;5062710;28;20519;-77
2022/05/05 06:23:22;;;;;;;11.50;10.30;;;;;;;-143.37;100.00;62585.38;5063596;28;20908;-77
2022/05/05 06:25:57;;;;;;;13.53;12.13;;;;;;;-143.37;100.00;62585.38;5045714;28;20456;-78
2022/05/05 06:28:34;;;;;;;12.77;11.27;;;;;;;-143.37;100.00;62585.38;5031178;28;20473;-77
2022/05/05 06:31:11;;;;;;;12.73;11.50;;;;;;;-143.37;100.00;62585.38;5034385;28;20434;-78
2022/05/05 06:33:49;;;;;;;13.67;12.27;;;;;;;-143.37;100.00;62585.38;5065019;28;20604;-78
2022/05/05 06:36:26;;;;;;;14.17;12.33;;;;;;;-143.37;100.00;62585.38;5034005;28;20474;-77
2022/05/05 06:39:01;;;;;;;14.43;12.10;;;;;;;-143.37;100.00;62585.38;5033623;28;20453;-77
2022/05/05 06:41:37;;;;;;;14.40;11.03;;;;;;;-143.37;100.00;62585.38;5043004;28;20446;-77
2022/05/05 06:44:13;;;;;;;12.80;11.47;;;;;;;-143.37;100.00;62585.38;5063411;28;20442;-78
2022/05/05 06:46:49;;;;;;;12.70;11.40;;;;;;;-143.37;100.00;62585.38;5063062;28;20449;-78
2022/05/05 06:49:25;;;;;;;15.20;12.67;;;;;;;-143.37;100.00;62585.38;5046224;28;20449;-77
2022/05/05 06:52:02;;;;;;;13.67;12.27;;;;;;;-143.37;100.00;62585.38;5065096;28;20446;-77
2022/05/05 06:54:38;;;;;;;13.27;11.87;;;;;;;-143.37;100.00;62585.38;5062307;28;20472;-77
2022/05/05 06:57:13;;;;;;;18.37;13.90;;;;;;;-143.37;100.00;62585.38;5068842;28;20473;-77
2022/05/05 06:59:49;;;;;;;13.33;11.97;;;;;;;-143.37;100.00;62585.38;5050090;28;20449;-77
2022/05/05 07:02:24;;;;;;;15.50;13.13;;;;;;;-143.37;100.00;62585.38;5048778;28;20571;-77
2022/05/05 07:08:03;;;;;;;15.17;12.40;;;;;;;-143.37;100.00;62585.38;5046140;28;20537;-77
2022/05/05 07:10:52;;;;;;;12.80;11.50;;;;;;;-143.37;100.00;62585.38;5046034;28;20441;-77
2022/05/05 07:13:28;;;;;;;14.60;13.10;;;;;;;-143.37;100.00;62585.38;5065765;28;20526;-80
2022/05/05 07:16:05;;;;;;;14.87;13.27;;;;;;;-143.37;100.00;62585.38;5054450;28;20481;-77
2022/05/05 07:18:41;;;;;;;14.50;13.00;;;;;;;-143.37;100.00;62585.38;5046557;28;20437;-78
2022/05/05 07:21:17;;;;;;;15.60;13.97;;;;;;;-143.37;100.00;62585.38;5050046;28;20810;-78
2022/05/05 07:23:54;;;;;;;16.87;14.00;;;;;;;-143.37;100.00;62585.38;5050100;28;20481;-78
2022/05/05 07:26:29;;;;;;;15.40;13.73;;;;;;;-143.37;100.00;62585.38;5031325;28;20962;-78
2022/05/05 07:29:05;;;;;;;14.60;13.10;;;;;;;-143.37;100.00;62585.38;5051413;28;20434;-80
2022/05/05 07:31:40;;;;;;;13.63;11.73;;;;;;;-143.37;100.00;62585.38;5066426;28;20960;-77
2022/05/05 07:34:16;;;;;;;12.70;11.30;;;;;;;-143.37;100.00;62585.38;5062952;28;20433;-77
2022/05/05 07:36:52;;;;;;;13.53;12.20;;;;;;;-143.37;100.00;62585.38;5052534;28;20438;-78
2022/05/05 07:39:29;;;;;;;14.93;12.33;;;;;;;-143.37;100.00;62585.38;5048809;28;20443;-78
2022/05/05 07:42:05;;;;;;;14.60;12.10;;;;;;;-143.37;100.00;62585.38;5030828;28;20941;-78
2022/05/05 07:44:40;;;;;;;12.83;11.30;;;;;;;-143.37;100.00;62585.38;5064324;28;20782;-78
2022/05/05 07:47:16;;;;;;;14.10;12.47;;;;;;;-143.37;100.00;62585.38;5044206;28;20458;-78
2022/05/05 07:49:52;;;;;;;14.33;12.67;;;;;;;-143.37;100.00;62585.38;5048502;28;20537;-78
2022/05/05 07:52:28;;;;;;;13.03;11.80;;;;;;;-143.37;100.00;62585.38;5058129;28;20512;-78
2022/05/05 07:55:05;;;;;;;13.50;11.10;;;;;;;-143.37;100.00;62585.38;5064495;28;20433;-78
2022/05/05 07:57:46;;;;;;;12.97;11.57;;;;;;;-143.37;100.00;62585.38;5047523;28;20513;-78
2022/05/05 08:00:23;;;;;;;13.80;11.47;;;;;;;-143.37;100.00;62585.38;5045013;28;20464;-78
2022/05/05 08:03:02;;;;;;;13.67;12.27;;;;;;;-143.37;100.00;62585.38;5027947;28;20523;-78
2022/05/05 08:05:37;;;;;;;13.60;12.20;;;;;;;-143.37;100.00;62585.38;5064920;28;20451;-78
2022/05/05 08:08:14;;;;;;;13.33;12.03;;;;;;;-143.37;100.00;62585.38;5041082;28;20524;-78
2022/05/05 08:10:53;;;;;;;14.90;12.30;;;;;;;-143.37;100.00;62585.38;5037646;28;20438;-78
2022/05/05 08:13:28;;;;;;;14.43;12.97;;;;;;;-143.37;100.00;62585.38;5063216;28;21231;-78
2022/05/05 08:16:05;;;;;;;14.10;12.23;;;;;;;-143.37;100.00;62585.38;5030895;28;20450;-78
2022/05/05 08:18:40;;;;;;;18.00;13.33;;;;;;;-143.37;100.00;62585.38;5059332;28;20438;-78
2022/05/05 08:21:16;;;;;;;16.17;14.53;;;;;;;-143.37;100.00;62585.38;5043542;28;20446;-78
2022/05/05 08:28:27;;;;;;;15.07;13.47;;;;;;;-143.37;100.00;62585.38;5041067;28;20463;-78
2022/05/05 08:29:42;;;;;;;15.10;13.50;;;;;;;-143.37;100.00;62585.38;5050921;28;20454;-78
2022/05/05 08:32:17;;;;;;;15.53;13.87;;;;;;;-143.37;100.00;62585.38;5044148;28;20926;-78
2022/05/05 08:34:54;;;;;;;15.53;13.90;;;;;;;-143.37;100.00;62585.38;5040546;28;20457;-78
2022/05/05 08:37:30;;;;;;;19.03;15.70;;;;;;;-143.37;100.00;62585.38;5045588;28;20442;-78
2022/05/05 08:40:07;;;;;;;16.97;15.17;;;;;;;-143.37;100.00;62585.38;5041511;28;20446;-78
2022/05/05 08:42:44;;;;;;;16.30;14.67;;;;;;;-143.37;100.00;62585.38;5039050;28;20462;-78
2022/05/05 08:45:20;;;;;;;16.13;14.43;;;;;;;-143.37;100.00;62585.38;5057363;28;20441;-78
2022/05/05 08:47:56;;;;;;;16.40;14.20;;;;;;;-143.37;100.00;62585.38;5054733;28;20793;-78
2022/05/05 08:50:33;;;;;;;16.07;14.47;;;;;;;-143.37;100.00;62585.38;5063965;28;20439;-78
2022/05/05 08:53:09;;;;;;;16.57;14.83;;;;;;;-143.37;100.00;62585.38;5062857;28;20447;-78
2022/05/05 08:55:45;;;;;;;16.57;14.77;;;;;;;-143.37;100.00;62585.38;5045581;28;20438;-78
2022/05/05 08:58:22;;;;;;;15.80;14.20;;;;;;;-143.37;100.00;62585.38;5027194;28;20999;-78
2022/05/05 09:01:04;;;;;;;14.70;13.20;;;;;;;-143.37;100.00;62585.38;5041175;28;20438;-78
2022/05/05 09:03:39;;;;;;;15.57;13.93;;;;;;;-143.37;100.00;62585.38;5026083;28;20463;-78
2022/05/05 09:06:15;;;;;;;18.57;16.40;;;;;;;-143.37;100.00;62585.38;5027597;28;20457;-78
2022/05/05 09:08:50;;;;;;;18.13;16.33;;;;;;;-143.37;100.00;62585.38;5040780;28;20765;-78
2022/05/05 09:11:27;;;;;;;17.60;15.83;;;;;;;-143.37;100.00;62585.38;5025611;28;20944;-78
2022/05/05 09:14:09;;;;;;;17.57;15.83;;;;;;;-143.37;100.00;62585.38;5046151;28;20438;-78
2022/05/05 09:16:48;;;;;;;18.97;16.97;;;;;;;-143.37;100.00;62585.38;5026154;28;20506;-78
2022/05/05 09:19:23;;;;;;;17.93;15.80;;;;;;;-143.37;100.00;62585.38;5014888;28;20470;-78
2022/05/05 09:22:03;;;;;;;18.67;16.50;;;;;;;-143.37;100.00;62585.38;5040398;28;20517;-78
2022/05/05 09:24:43;;;;;;;17.60;15.77;;;;;;;-143.37;100.00;62585.38;5042353;28;20463;-78
2022/05/05 09:27:24;;;;;;;18.60;16.63;;;;;;;-143.37;100.00;62585.38;5012970;28;20729;-78
2022/05/05 09:30:12;;;;;;;19.97;17.83;;;;;;;-143.37;100.00;62585.38;5008651;28;20440;-78
2022/05/05 09:32:48;;;;;;;20.97;18.67;;;;;;;-143.37;100.00;62585.38;5025978;28;20450;-78
2022/05/05 09:35:25;;;;;;;20.43;18.23;;;;;;;-143.37;100.00;62585.38;5024635;28;20533;-78
2022/05/05 09:38:02;;;;;;;20.10;17.90;;;;;;;-143.37;100.00;62585.38;5029987;28;20542;-78
2022/05/05 09:40:38;;;;;;;23.07;20.47;;;;;;;-143.37;100.00;62585.38;5040159;28;20435;-78
2022/05/05 09:43:14;;;;;;;26.60;20.90;;;;;;;-143.37;100.00;62585.38;5037983;28;20490;-78
2022/05/05 09:45:55;;;;;;;22.23;20.00;;;;;;;-143.37;100.00;62585.38;5026915;28;20455;-78
2022/05/05 09:48:31;;;;;;;23.43;21.03;;;;;;;-143.37;100.00;62585.38;5027461;28;20474;-78
2022/05/05 09:51:06;;;;;;;22.20;19.83;;;;;;;-143.37;100.00;62585.38;5035196;28;20477;-78
2022/05/05 09:59:40;;;;;;;23.70;21.20;;;;;;;-143.37;100.00;62585.38;5028469;28;20528;-78
2022/05/05 10:04:00;;;;;;;23.10;20.67;;;;;;;-143.37;100.00;62585.38;5040788;28;21113;-78
2022/05/05 10:05:21;;;;;;;23.80;20.30;;;;;;;-143.37;100.00;62585.38;5034205;28;20442;-78
2022/05/05 10:08:07;;;;;;;23.83;21.20;;;;;;;-143.37;100.00;62585.38;5055474;28;20433;-78
2022/05/05 10:10:43;;;;;;;24.13;21.63;;;;;;;-143.37;100.00;62585.38;5048295;28;20463;-78
2022/05/05 10:13:23;;;;;;;23.40;20.77;;;;;;;-143.37;100.00;62585.38;5062465;28;20435;-78
2022/05/05 10:16:00;;;;;;;23.83;21.23;;;;;;;-143.37;100.00;62585.38;5042233;28;20446;-78
2022/05/05 10:18:38;;;;;;;23.17;20.67;;;;;;;-143.37;100.00;62585.38;5049020;28;20928;-78
2022/05/05 10:21:22;;;;;;;23.30;19.77;;;;;;;-143.37;100.00;62585.38;5045289;28;20451;-78
2022/05/05 10:24:08;;;;;;;24.60;19.90;;;;;;;-143.37;100.00;62585.38;5045124;28;20560;-78
2022/05/05 10:26:44;;;;;;;21.63;19.30;;;;;;;-143.37;100.00;62585.38;5064124;28;20453;-78
2022/05/05 10:29:37;;;;;;;24.57;20.33;;;;;;;-143.37;100.00;62585.38;5061084;28;21021;-78
2022/05/05 10:32:13;;;;;;;25.17;22.10;;;;;;;-143.37;100.00;62585.38;5064313;28;20445;-78
2022/05/05 10:34:55;;;;;;;24.53;21.40;;;;;;;-143.37;100.00;62585.38;5029629;28;20461;-78
2022/05/05 10:37:33;;;;;;;25.73;21.53;;;;;;;-143.37;100.00;62585.38;5044879;28;20454;-78
2022/05/05 10:40:10;;;;;;;24.87;22.27;;;;;;;-143.37;100.00;62585.38;5042221;28;20450;-78
2022/05/05 10:42:46;;;;;;;22.83;20.43;;;;;;;-143.37;100.00;62585.38;5063053;28;20489;-78
2022/05/05 10:45:33;;;;;;;25.00;22.60;;;;;;;-143.37;100.00;62585.38;5062191;28;20576;-78
2022/05/05 10:48:12;;;;;;;26.30;21.90;;;;;;;-143.37;100.00;62585.38;5045001;28;20447;-79
2022/05/05 10:50:53;;;;;;;23.90;20.90;;;;;;;-143.37;100.00;62585.38;5041953;28;20450;-78
2022/05/05 10:53:32;;;;;;;27.20;24.30;;;;;;;-143.37;100.00;62585.38;5048518;28;20529;-78
2022/05/05 10:56:29;;;;;;;25.47;22.87;;;;;;;-143.37;100.00;62585.38;5047073;28;20986;-79
2022/05/05 10:59:08;;;;;;;25.03;21.73;;;;;;;-143.37;100.00;62585.38;5046619;28;20443;-79
2022/05/05 11:02:04;;;;;;;25.43;22.73;;;;;;;-143.37;100.00;62585.38;5052759;28;20854;-79
2022/05/05 11:04:40;;;;;;;27.30;23.80;;;;;;;-143.37;100.00;62585.38;5047167;28;20943;-79
2022/05/05 11:07:37;;;;;;;26.33;21.40;;;;;;;-143.37;100.00;62585.38;5044539;28;20453;-79
2022/05/05 11:10:44;;;;;;;25.07;22.37;;;;;;;-143.37;100.00;62585.38;5059943;28;20442;-79
2022/05/05 11:13:35;;;;;;;27.20;24.10;;;;;;;-143.37;100.00;62585.38;5053251;28;20737;-79
2022/05/05 11:22:20;;;;;;;28.20;25.20;;;;;;;-143.37;100.00;62585.38;5036196;28;20439;-79
2022/05/05 11:24:57;;;;;;;26.10;23.57;;;;;;;-143.37;100.00;62585.38;5040692;28;20489;-79
2022/05/05 11:27:32;;;;;;;27.20;24.10;;;;;;;-143.37;100.00;62585.38;5046627;28;20861;-79
2022/05/05 11:30:13;;;;;;;25.87;23.00;;;;;;;-143.37;100.00;62585.38;5062205;28;20517;-79
2022/05/05 11:32:49;;;;;;;29.60;26.50;;;;;;;-143.37;100.00;62585.38;5056123;28;20434;-79
2022/05/05 11:35:25;;;;;;;29.27;25.73;;;;;;;-143.37;100.00;62585.38;5058831;28;20461;-79
2022/05/05 11:38:02;;;;;;;29.67;26.30;;;;;;;-143.37;100.00;62585.38;5064978;28;20453;-79
2022/05/05 11:40:39;;;;;;;30.50;27.30;;;;;;;-143.37;100.00;62585.38;5044341;28;20450;-79
2022/05/05 11:46:07;;;;;;;31.47;27.60;;;;;;;-143.37;100.00;62585.38;5044348;28;20807;-79
2022/05/05 11:48:43;;;;;;;28.57;25.67;;;;;;;-143.37;100.00;62585.38;5062536;28;20804;-79
2022/05/05 11:51:21;;;;;;;31.03;26.50;;;;;;;-143.37;100.00;62585.38;5058779;28;20446;-79
2022/05/05 11:54:05;;;;;;;27.70;24.77;;;;;;;-143.37;100.00;62585.38;5041122;28;20430;-79
2022/05/05 11:56:46;;;;;;;28.27;25.30;;;;;;;-143.37;100.00;62585.38;5044264;28;20498;-79
2022/05/05 12:02:20;;;;;;;29.20;26.20;;;;;;;-143.37;100.00;62585.38;5062474;28;20454;-80
2022/05/05 12:04:58;;;;;;;27.30;24.07;;;;;;;-143.37;100.00;62585.38;5062040;28;20862;-79
2022/05/05 12:07:34;;;;;;;28.27;24.53;;;;;;;-143.37;100.00;62585.38;5045636;28;20800;-79
2022/05/05 12:10:10;;;;;;;29.50;25.33;;;;;;;-143.37;100.00;62585.38;5055955;28;20442;-79
2022/05/05 12:12:49;;;;;;;27.33;24.53;;;;;;;-143.37;100.00;62585.38;5047942;28;20758;-79
2022/05/05 12:15:29;;;;;;;27.97;24.97;;;;;;;-143.37;100.00;62585.38;5026107;28;20893;-79
2022/05/05 12:18:15;;;;;;;24.90;22.30;;;;;;;-143.37;100.00;62585.38;5047763;28;20429;-79